sensor_id;sensor_type;location;lat;lon;timestamp;temperature;humidity
33931;DHT22;20215;53.130;6.408;2022-12-18T00:00:05;9.60;62.70
33931;DHT22;20215;53.130;6.408;2022-12-18T00:02:31;9.60;63.00
33931;DHT22;20215;53.130;6.408;2022-12-18T00:04:57;9.50;62.70
33931;DHT22;20215;53.130;6.408;2022-12-18T00:07:22;9.50;62.40
33931;DHT22;20215;53.130;6.408;2022-12-18T00:09:48;9.50;62.10
33931;DHT22;20215;53.130;6.408;2022-12-18T00:12:13;9.50;62.50
33931;DHT22;20215;53.130;6.408;2022-12-18T00:14:39;9.50;62.30
33931;DHT22;20215;53.130;6.408;2022-12-18T00:17:04;9.40;62.10
33931;DHT22;20215;53.130;6.408;2022-12-18T00:19:30;9.40;62.40
33931;DHT22;20215;53.130;6.408;2022-12-18T00:21:56;9.40;62.90
33931;DHT22;20215;53.130;6.408;2022-12-18T00:24:23;9.40;62.60
33931;DHT22;20215;53.130;6.408;2022-12-18T00:26:49;9.30;62.50
33931;DHT22;20215;53.130;6.408;2022-12-18T00:29:14;9.30;62.20
33931;DHT22;20215;53.130;6.408;2022-12-18T00:31:40;9.30;62.60
33931;DHT22;20215;53.130;6.408;2022-12-18T00:34:08;9.30;62.40
33931;DHT22;20215;53.130;6.408;2022-12-18T00:36:35;9.30;62.50
33931;DHT22;20215;53.130;6.408;2022-12-18T00:39:02;9.30;62.80
33931;DHT22;20215;53.130;6.408;2022-12-18T00:41:28;9.30;62.60
33931;DHT22;20215;53.130;6.408;2022-12-18T00:44:14;9.30;62.20
33931;DHT22;20215;53.130;6.408;2022-12-18T00:46:41;9.30;62.40
33931;DHT22;20215;53.130;6.408;2022-12-18T00:49:07;9.30;62.00
33931;DHT22;20215;53.130;6.408;2022-12-18T00:51:33;9.30;62.30
33931;DHT22;20215;53.130;6.408;2022-12-18T00:53:58;9.20;61.90
33931;DHT22;20215;53.130;6.408;2022-12-18T00:56:24;9.20;61.70
33931;DHT22;20215;53.130;6.408;2022-12-18T00:58:50;9.20;62.20
33931;DHT22;20215;53.130;6.408;2022-12-18T01:01:16;9.10;62.20
33931;DHT22;20215;53.130;6.408;2022-12-18T01:03:42;9.10;61.90
33931;DHT22;20215;53.130;6.408;2022-12-18T01:06:10;9.10;62.00
33931;DHT22;20215;53.130;6.408;2022-12-18T01:08:37;9.10;62.00
33931;DHT22;20215;53.130;6.408;2022-12-18T01:11:15;9.10;62.00
33931;DHT22;20215;53.130;6.408;2022-12-18T01:13:42;9.10;61.10
33931;DHT22;20215;53.130;6.408;2022-12-18T01:16:08;9.00;61.80
33931;DHT22;20215;53.130;6.408;2022-12-18T01:18:34;9.00;62.20
33931;DHT22;20215;53.130;6.408;2022-12-18T01:21:00;9.00;62.30
33931;DHT22;20215;53.130;6.408;2022-12-18T01:23:25;9.00;62.30
33931;DHT22;20215;53.130;6.408;2022-12-18T01:25:51;9.00;62.10
33931;DHT22;20215;53.130;6.408;2022-12-18T01:28:17;9.00;62.00
33931;DHT22;20215;53.130;6.408;2022-12-18T01:30:42;9.00;62.30
33931;DHT22;20215;53.130;6.408;2022-12-18T01:33:08;9.00;62.30
33931;DHT22;20215;53.130;6.408;2022-12-18T01:35:40;9.00;62.00
33931;DHT22;20215;53.130;6.408;2022-12-18T01:38:06;9.00;62.00
33931;DHT22;20215;53.130;6.408;2022-12-18T01:40:31;9.00;62.00
33931;DHT22;20215;53.130;6.408;2022-12-18T01:42:57;8.90;62.00
33931;DHT22;20215;53.130;6.408;2022-12-18T01:45:27;8.90;62.30
33931;DHT22;20215;53.130;6.408;2022-12-18T01:48:04;8.90;62.00
33931;DHT22;20215;53.130;6.408;2022-12-18T01:50:49;8.90;62.10
33931;DHT22;20215;53.130;6.408;2022-12-18T01:53:19;8.90;61.80
33931;DHT22;20215;53.130;6.408;2022-12-18T01:55:54;8.90;62.00
33931;DHT22;20215;53.130;6.408;2022-12-18T01:58:27;8.90;62.20
33931;DHT22;20215;53.130;6.408;2022-12-18T02:00:55;8.90;61.60
33931;DHT22;20215;53.130;6.408;2022-12-18T02:03:21;8.80;61.80
33931;DHT22;20215;53.130;6.408;2022-12-18T02:06:10;8.90;62.10
33931;DHT22;20215;53.130;6.408;2022-12-18T02:09:02;8.80;61.60
33931;DHT22;20215;53.130;6.408;2022-12-18T02:15:03;8.70;62.00
33931;DHT22;20215;53.130;6.408;2022-12-18T02:17:38;8.70;61.50
33931;DHT22;20215;53.130;6.408;2022-12-18T02:20:35;8.70;61.40
33931;DHT22;20215;53.130;6.408;2022-12-18T02:26:10;8.60;61.80
33931;DHT22;20215;53.130;6.408;2022-12-18T02:28:40;8.60;61.70
33931;DHT22;20215;53.130;6.408;2022-12-18T02:31:11;8.60;61.80
33931;DHT22;20215;53.130;6.408;2022-12-18T02:33:37;8.60;62.10
33931;DHT22;20215;53.130;6.408;2022-12-18T02:36:04;8.50;62.30
33931;DHT22;20215;53.130;6.408;2022-12-18T02:38:30;8.50;62.20
33931;DHT22;20215;53.130;6.408;2022-12-18T02:40:57;8.50;62.10
33931;DHT22;20215;53.130;6.408;2022-12-18T02:43:22;8.60;62.40
33931;DHT22;20215;53.130;6.408;2022-12-18T02:45:55;8.50;62.40
33931;DHT22;20215;53.130;6.408;2022-12-18T02:48:30;8.60;62.10
33931;DHT22;20215;53.130;6.408;2022-12-18T02:51:23;8.60;61.80
33931;DHT22;20215;53.130;6.408;2022-12-18T02:54:05;8.60;61.80
33931;DHT22;20215;53.130;6.408;2022-12-18T02:56:43;8.50;61.90
33931;DHT22;20215;53.130;6.408;2022-12-18T02:59:17;8.50;62.00
33931;DHT22;20215;53.130;6.408;2022-12-18T03:01:55;8.50;62.10
33931;DHT22;20215;53.130;6.408;2022-12-18T03:04:39;8.50;62.30
33931;DHT22;20215;53.130;6.408;2022-12-18T03:07:13;8.50;61.40
33931;DHT22;20215;53.130;6.408;2022-12-18T03:09:43;8.50;61.90
33931;DHT22;20215;53.130;6.408;2022-12-18T03:12:17;8.50;62.10
33931;DHT22;20215;53.130;6.408;2022-12-18T03:15:16;8.40;62.20
33931;DHT22;20215;53.130;6.408;2022-12-18T03:17:46;8.40;62.10
33931;DHT22;20215;53.130;6.408;2022-12-18T03:20:17;8.40;62.70
33931;DHT22;20215;53.130;6.408;2022-12-18T03:22:45;8.40;62.10
33931;DHT22;20215;53.130;6.408;2022-12-18T03:25:14;8.40;62.00
33931;DHT22;20215;53.130;6.408;2022-12-18T03:27:45;8.40;62.10
33931;DHT22;20215;53.130;6.408;2022-12-18T03:30:13;8.40;62.10
33931;DHT22;20215;53.130;6.408;2022-12-18T03:32:43;8.40;61.90
33931;DHT22;20215;53.130;6.408;2022-12-18T03:35:13;8.40;62.10
33931;DHT22;20215;53.130;6.408;2022-12-18T03:37:39;8.30;61.90
33931;DHT22;20215;53.130;6.408;2022-12-18T03:40:06;8.30;62.00
33931;DHT22;20215;53.130;6.408;2022-12-18T03:42:51;8.30;62.20
33931;DHT22;20215;53.130;6.408;2022-12-18T03:45:32;8.40;61.50
33931;DHT22;20215;53.130;6.408;2022-12-18T03:48:04;8.30;61.90
33931;DHT22;20215;53.130;6.408;2022-12-18T03:50:37;8.30;61.80
33931;DHT22;20215;53.130;6.408;2022-12-18T03:53:25;8.30;61.60
33931;DHT22;20215;53.130;6.408;2022-12-18T03:55:55;8.30;61.80
33931;DHT22;20215;53.130;6.408;2022-12-18T03:58:24;8.30;61.80
33931;DHT22;20215;53.130;6.408;2022-12-18T04:00:52;8.30;62.10
33931;DHT22;20215;53.130;6.408;2022-12-18T04:03:20;8.20;62.10
33931;DHT22;20215;53.130;6.408;2022-12-18T04:05:47;8.20;62.00
33931;DHT22;20215;53.130;6.408;2022-12-18T04:08:14;8.30;62.00
33931;DHT22;20215;53.130;6.408;2022-12-18T04:10:40;8.20;62.00
33931;DHT22;20215;53.130;6.408;2022-12-18T04:13:05;8.20;61.90
33931;DHT22;20215;53.130;6.408;2022-12-18T04:15:34;8.20;62.00
33931;DHT22;20215;53.130;6.408;2022-12-18T04:18:00;8.20;62.00
33931;DHT22;20215;53.130;6.408;2022-12-18T04:20:26;8.20;61.90
33931;DHT22;20215;53.130;6.408;2022-12-18T04:22:51;8.20;61.90
33931;DHT22;20215;53.130;6.408;2022-12-18T04:25:17;8.20;61.80
33931;DHT22;20215;53.130;6.408;2022-12-18T04:27:42;8.10;61.60
33931;DHT22;20215;53.130;6.408;2022-12-18T04:30:08;8.20;61.80
33931;DHT22;20215;53.130;6.408;2022-12-18T04:32:34;8.10;61.80
33931;DHT22;20215;53.130;6.408;2022-12-18T04:35:00;8.10;61.80
33931;DHT22;20215;53.130;6.408;2022-12-18T04:37:26;8.10;61.40
33931;DHT22;20215;53.130;6.408;2022-12-18T04:39:51;8.10;61.80
33931;DHT22;20215;53.130;6.408;2022-12-18T04:42:17;8.10;61.60
33931;DHT22;20215;53.130;6.408;2022-12-18T04:44:42;8.10;61.80
33931;DHT22;20215;53.130;6.408;2022-12-18T04:47:08;8.10;61.80
33931;DHT22;20215;53.130;6.408;2022-12-18T04:49:33;8.10;61.50
33931;DHT22;20215;53.130;6.408;2022-12-18T04:51:59;8.00;61.60
33931;DHT22;20215;53.130;6.408;2022-12-18T04:54:25;8.00;61.80
33931;DHT22;20215;53.130;6.408;2022-12-18T04:56:50;8.00;61.50
33931;DHT22;20215;53.130;6.408;2022-12-18T04:59:16;8.00;61.30
33931;DHT22;20215;53.130;6.408;2022-12-18T05:01:42;8.00;61.50
33931;DHT22;20215;53.130;6.408;2022-12-18T05:04:07;8.00;61.70
33931;DHT22;20215;53.130;6.408;2022-12-18T05:06:33;8.00;62.00
33931;DHT22;20215;53.130;6.408;2022-12-18T05:08:59;8.00;61.40
33931;DHT22;20215;53.130;6.408;2022-12-18T05:11:24;8.00;61.70
33931;DHT22;20215;53.130;6.408;2022-12-18T05:13:50;8.00;61.60
33931;DHT22;20215;53.130;6.408;2022-12-18T05:16:15;8.00;61.80
33931;DHT22;20215;53.130;6.408;2022-12-18T05:18:41;7.90;61.60
33931;DHT22;20215;53.130;6.408;2022-12-18T05:21:07;7.90;61.40
33931;DHT22;20215;53.130;6.408;2022-12-18T05:23:33;7.90;61.60
33931;DHT22;20215;53.130;6.408;2022-12-18T05:26:01;7.90;61.60
33931;DHT22;20215;53.130;6.408;2022-12-18T05:28:28;8.00;61.70
33931;DHT22;20215;53.130;6.408;2022-12-18T05:30:58;7.90;61.70
33931;DHT22;20215;53.130;6.408;2022-12-18T05:33:26;7.90;61.30
33931;DHT22;20215;53.130;6.408;2022-12-18T05:35:57;8.00;61.60
33931;DHT22;20215;53.130;6.408;2022-12-18T05:38:25;7.90;61.20
33931;DHT22;20215;53.130;6.408;2022-12-18T05:40:52;8.00;61.60
33931;DHT22;20215;53.130;6.408;2022-12-18T05:43:18;8.00;61.50
33931;DHT22;20215;53.130;6.408;2022-12-18T05:45:44;7.90;61.30
33931;DHT22;20215;53.130;6.408;2022-12-18T05:48:12;7.90;61.60
33931;DHT22;20215;53.130;6.408;2022-12-18T05:50:39;7.90;61.60
33931;DHT22;20215;53.130;6.408;2022-12-18T05:53:06;7.90;61.20
33931;DHT22;20215;53.130;6.408;2022-12-18T05:55:39;7.90;61.50
33931;DHT22;20215;53.130;6.408;2022-12-18T05:58:06;7.90;61.40
33931;DHT22;20215;53.130;6.408;2022-12-18T06:00:34;7.90;61.50
33931;DHT22;20215;53.130;6.408;2022-12-18T06:03:01;7.90;61.60
33931;DHT22;20215;53.130;6.408;2022-12-18T06:05:28;7.90;61.70
33931;DHT22;20215;53.130;6.408;2022-12-18T06:07:53;7.90;61.30
33931;DHT22;20215;53.130;6.408;2022-12-18T06:10:19;7.90;61.40
33931;DHT22;20215;53.130;6.408;2022-12-18T06:12:45;7.90;61.20
33931;DHT22;20215;53.130;6.408;2022-12-18T06:15:10;7.90;61.20
33931;DHT22;20215;53.130;6.408;2022-12-18T06:17:37;7.80;61.10
33931;DHT22;20215;53.130;6.408;2022-12-18T06:20:04;7.80;61.20
33931;DHT22;20215;53.130;6.408;2022-12-18T06:22:31;7.80;61.10
33931;DHT22;20215;53.130;6.408;2022-12-18T06:24:57;7.90;61.20
33931;DHT22;20215;53.130;6.408;2022-12-18T06:27:23;7.90;61.00
33931;DHT22;20215;53.130;6.408;2022-12-18T06:29:48;7.90;61.20
33931;DHT22;20215;53.130;6.408;2022-12-18T06:32:14;7.90;61.20
33931;DHT22;20215;53.130;6.408;2022-12-18T06:34:40;7.80;60.90
33931;DHT22;20215;53.130;6.408;2022-12-18T06:37:05;7.80;60.90
33931;DHT22;20215;53.130;6.408;2022-12-18T06:39:31;7.80;60.90
33931;DHT22;20215;53.130;6.408;2022-12-18T06:41:57;7.80;60.70
33931;DHT22;20215;53.130;6.408;2022-12-18T06:44:22;7.80;61.10
33931;DHT22;20215;53.130;6.408;2022-12-18T06:46:48;7.80;60.70
33931;DHT22;20215;53.130;6.408;2022-12-18T06:49:14;7.80;60.90
33931;DHT22;20215;53.130;6.408;2022-12-18T06:51:41;7.80;61.10
33931;DHT22;20215;53.130;6.408;2022-12-18T06:54:08;7.80;61.00
33931;DHT22;20215;53.130;6.408;2022-12-18T06:56:33;7.90;61.20
33931;DHT22;20215;53.130;6.408;2022-12-18T06:58:59;7.90;61.20
33931;DHT22;20215;53.130;6.408;2022-12-18T07:01:25;7.90;61.30
33931;DHT22;20215;53.130;6.408;2022-12-18T07:03:55;7.90;61.40
33931;DHT22;20215;53.130;6.408;2022-12-18T07:06:23;8.00;61.60
33931;DHT22;20215;53.130;6.408;2022-12-18T07:08:49;8.00;61.40
33931;DHT22;20215;53.130;6.408;2022-12-18T07:11:17;8.10;61.60
33931;DHT22;20215;53.130;6.408;2022-12-18T07:13:43;8.20;61.60
33931;DHT22;20215;53.130;6.408;2022-12-18T07:16:11;8.20;61.80
33931;DHT22;20215;53.130;6.408;2022-12-18T07:18:37;8.20;61.70
33931;DHT22;20215;53.130;6.408;2022-12-18T07:21:08;8.30;61.90
33931;DHT22;20215;53.130;6.408;2022-12-18T07:23:35;8.40;62.00
33931;DHT22;20215;53.130;6.408;2022-12-18T07:26:06;8.40;61.70
33931;DHT22;20215;53.130;6.408;2022-12-18T07:28:33;8.50;61.60
33931;DHT22;20215;53.130;6.408;2022-12-18T07:31:06;8.50;62.10
33931;DHT22;20215;53.130;6.408;2022-12-18T07:33:33;8.60;62.30
33931;DHT22;20215;53.130;6.408;2022-12-18T07:36:00;8.70;63.00
33931;DHT22;20215;53.130;6.408;2022-12-18T07:38:25;8.70;62.30
33931;DHT22;20215;53.130;6.408;2022-12-18T07:40:51;8.80;61.90
33931;DHT22;20215;53.130;6.408;2022-12-18T07:43:17;8.90;62.50
33931;DHT22;20215;53.130;6.408;2022-12-18T07:45:42;8.90;62.30
33931;DHT22;20215;53.130;6.408;2022-12-18T07:48:08;8.90;62.30
33931;DHT22;20215;53.130;6.408;2022-12-18T07:50:34;9.00;62.30
33931;DHT22;20215;53.130;6.408;2022-12-18T07:52:59;9.00;62.30
33931;DHT22;20215;53.130;6.408;2022-12-18T07:55:29;9.10;62.40
33931;DHT22;20215;53.130;6.408;2022-12-18T07:57:55;9.10;62.20
33931;DHT22;20215;53.130;6.408;2022-12-18T08:00:21;9.10;61.90
33931;DHT22;20215;53.130;6.408;2022-12-18T08:02:46;9.20;62.00
33931;DHT22;20215;53.130;6.408;2022-12-18T08:05:12;9.10;62.30
33931;DHT22;20215;53.130;6.408;2022-12-18T08:07:38;9.10;61.50
33931;DHT22;20215;53.130;6.408;2022-12-18T08:10:05;9.20;61.70
33931;DHT22;20215;53.130;6.408;2022-12-18T08:12:30;9.10;61.50
33931;DHT22;20215;53.130;6.408;2022-12-18T08:14:56;9.10;61.10
33931;DHT22;20215;53.130;6.408;2022-12-18T08:17:22;9.10;60.60
33931;DHT22;20215;53.130;6.408;2022-12-18T08:19:47;9.10;60.00
33931;DHT22;20215;53.130;6.408;2022-12-18T08:22:13;9.00;59.60
33931;DHT22;20215;53.130;6.408;2022-12-18T08:24:38;9.00;60.20
33931;DHT22;20215;53.130;6.408;2022-12-18T08:27:04;9.00;60.20
33931;DHT22;20215;53.130;6.408;2022-12-18T08:29:30;9.00;60.40
33931;DHT22;20215;53.130;6.408;2022-12-18T08:31:56;8.90;59.40
33931;DHT22;20215;53.130;6.408;2022-12-18T08:34:21;8.90;59.70
33931;DHT22;20215;53.130;6.408;2022-12-18T08:36:47;8.80;59.80
33931;DHT22;20215;53.130;6.408;2022-12-18T08:39:13;8.80;60.00
33931;DHT22;20215;53.130;6.408;2022-12-18T08:41:38;8.80;59.60
33931;DHT22;20215;53.130;6.408;2022-12-18T08:44:04;8.80;60.10
33931;DHT22;20215;53.130;6.408;2022-12-18T08:46:48;8.80;60.00
33931;DHT22;20215;53.130;6.408;2022-12-18T08:49:13;8.80;60.00
33931;DHT22;20215;53.130;6.408;2022-12-18T08:51:39;8.80;60.00
33931;DHT22;20215;53.130;6.408;2022-12-18T08:54:06;8.80;60.00
33931;DHT22;20215;53.130;6.408;2022-12-18T08:56:32;8.80;60.10
33931;DHT22;20215;53.130;6.408;2022-12-18T08:58:58;8.70;59.60
33931;DHT22;20215;53.130;6.408;2022-12-18T09:01:24;8.70;59.80
33931;DHT22;20215;53.130;6.408;2022-12-18T09:03:50;8.80;59.80
33931;DHT22;20215;53.130;6.408;2022-12-18T09:06:17;8.70;59.80
33931;DHT22;20215;53.130;6.408;2022-12-18T09:08:44;8.70;59.70
33931;DHT22;20215;53.130;6.408;2022-12-18T09:11:24;8.70;59.70
33931;DHT22;20215;53.130;6.408;2022-12-18T09:13:50;8.70;59.60
33931;DHT22;20215;53.130;6.408;2022-12-18T09:16:16;8.70;59.40
33931;DHT22;20215;53.130;6.408;2022-12-18T09:18:41;8.70;59.50
33931;DHT22;20215;53.130;6.408;2022-12-18T09:21:11;8.70;59.30
33931;DHT22;20215;53.130;6.408;2022-12-18T09:23:37;8.70;59.20
33931;DHT22;20215;53.130;6.408;2022-12-18T09:26:03;8.60;59.00
33931;DHT22;20215;53.130;6.408;2022-12-18T09:28:29;8.60;59.50
33931;DHT22;20215;53.130;6.408;2022-12-18T09:30:55;8.60;59.00
33931;DHT22;20215;53.130;6.408;2022-12-18T09:33:20;8.60;58.90
33931;DHT22;20215;53.130;6.408;2022-12-18T09:35:46;8.60;59.30
33931;DHT22;20215;53.130;6.408;2022-12-18T09:38:15;8.60;59.20
33931;DHT22;20215;53.130;6.408;2022-12-18T09:40:50;8.60;59.00
33931;DHT22;20215;53.130;6.408;2022-12-18T09:43:29;8.60;59.10
33931;DHT22;20215;53.130;6.408;2022-12-18T09:45:59;8.60;59.00
33931;DHT22;20215;53.130;6.408;2022-12-18T09:48:32;8.60;59.00
33931;DHT22;20215;53.130;6.408;2022-12-18T09:51:10;8.60;59.10
33931;DHT22;20215;53.130;6.408;2022-12-18T09:53:38;8.60;58.60
33931;DHT22;20215;53.130;6.408;2022-12-18T09:56:06;8.50;58.80
33931;DHT22;20215;53.130;6.408;2022-12-18T09:58:41;8.50;59.00
33931;DHT22;20215;53.130;6.408;2022-12-18T10:01:21;8.50;58.90
33931;DHT22;20215;53.130;6.408;2022-12-18T10:03:48;8.50;58.70
33931;DHT22;20215;53.130;6.408;2022-12-18T10:09:01;8.50;58.90
33931;DHT22;20215;53.130;6.408;2022-12-18T10:11:48;8.50;59.00
33931;DHT22;20215;53.130;6.408;2022-12-18T10:14:42;8.50;58.90
33931;DHT22;20215;53.130;6.408;2022-12-18T10:23:04;8.50;59.00
33931;DHT22;20215;53.130;6.408;2022-12-18T10:28:19;8.40;58.80
33931;DHT22;20215;53.130;6.408;2022-12-18T10:30:44;8.50;58.60
33931;DHT22;20215;53.130;6.408;2022-12-18T10:33:17;8.40;58.70
33931;DHT22;20215;53.130;6.408;2022-12-18T10:35:44;8.40;58.70
33931;DHT22;20215;53.130;6.408;2022-12-18T10:45:59;8.40;58.90
33931;DHT22;20215;53.130;6.408;2022-12-18T10:48:26;8.40;59.00
33931;DHT22;20215;53.130;6.408;2022-12-18T10:50:52;8.50;58.80
33931;DHT22;20215;53.130;6.408;2022-12-18T10:53:28;8.40;58.70
33931;DHT22;20215;53.130;6.408;2022-12-18T10:55:57;8.40;58.20
33931;DHT22;20215;53.130;6.408;2022-12-18T10:58:26;8.50;58.70
33931;DHT22;20215;53.130;6.408;2022-12-18T11:08:35;8.40;58.80
33931;DHT22;20215;53.130;6.408;2022-12-18T11:11:01;8.40;58.70
33931;DHT22;20215;53.130;6.408;2022-12-18T11:13:29;8.50;58.80
33931;DHT22;20215;53.130;6.408;2022-12-18T11:15:56;8.50;58.60
33931;DHT22;20215;53.130;6.408;2022-12-18T11:18:33;8.50;58.80
33931;DHT22;20215;53.130;6.408;2022-12-18T11:21:10;8.50;58.90
33931;DHT22;20215;53.130;6.408;2022-12-18T11:23:44;8.50;58.50
33931;DHT22;20215;53.130;6.408;2022-12-18T11:26:11;8.40;58.80
33931;DHT22;20215;53.130;6.408;2022-12-18T11:31:25;8.50;58.80
33931;DHT22;20215;53.130;6.408;2022-12-18T11:34:20;8.50;58.30
33931;DHT22;20215;53.130;6.408;2022-12-18T11:36:48;8.50;58.60
33931;DHT22;20215;53.130;6.408;2022-12-18T11:39:40;8.50;58.80
33931;DHT22;20215;53.130;6.408;2022-12-18T11:42:38;8.50;58.50
33931;DHT22;20215;53.130;6.408;2022-12-18T11:45:34;8.50;58.90
33931;DHT22;20215;53.130;6.408;2022-12-18T11:48:05;8.50;58.00
33931;DHT22;20215;53.130;6.408;2022-12-18T11:50:46;8.40;58.50
33931;DHT22;20215;53.130;6.408;2022-12-18T11:53:14;8.40;58.60
33931;DHT22;20215;53.130;6.408;2022-12-18T12:01:07;8.40;58.50
33931;DHT22;20215;53.130;6.408;2022-12-18T12:14:38;8.40;58.70
33931;DHT22;20215;53.130;6.408;2022-12-18T12:17:27;8.40;58.80
33931;DHT22;20215;53.130;6.408;2022-12-18T12:20:12;8.30;58.20
33931;DHT22;20215;53.130;6.408;2022-12-18T12:22:59;8.30;58.70
33931;DHT22;20215;53.130;6.408;2022-12-18T12:25:32;8.30;58.10
33931;DHT22;20215;53.130;6.408;2022-12-18T12:39:30;8.30;58.90
33931;DHT22;20215;53.130;6.408;2022-12-18T12:41:57;8.30;58.60
33931;DHT22;20215;53.130;6.408;2022-12-18T12:44:53;8.40;59.10
33931;DHT22;20215;53.130;6.408;2022-12-18T12:47:31;8.30;58.80
33931;DHT22;20215;53.130;6.408;2022-12-18T12:50:04;8.30;58.70
33931;DHT22;20215;53.130;6.408;2022-12-18T12:52:42;8.30;58.20
33931;DHT22;20215;53.130;6.408;2022-12-18T12:55:16;8.30;58.20
33931;DHT22;20215;53.130;6.408;2022-12-18T13:00:18;8.30;58.60
33931;DHT22;20215;53.130;6.408;2022-12-18T13:05:49;8.30;58.20
33931;DHT22;20215;53.130;6.408;2022-12-18T13:08:28;8.40;58.20
33931;DHT22;20215;53.130;6.408;2022-12-18T13:10:56;8.30;58.50
33931;DHT22;20215;53.130;6.408;2022-12-18T13:13:53;8.40;58.70
33931;DHT22;20215;53.130;6.408;2022-12-18T13:16:22;8.40;58.50
33931;DHT22;20215;53.130;6.408;2022-12-18T13:18:51;8.50;58.40
33931;DHT22;20215;53.130;6.408;2022-12-18T13:21:24;8.40;58.20
33931;DHT22;20215;53.130;6.408;2022-12-18T13:23:52;8.40;58.00
33931;DHT22;20215;53.130;6.408;2022-12-18T13:31:14;8.40;58.20
33931;DHT22;20215;53.130;6.408;2022-12-18T13:33:45;8.40;58.50
33931;DHT22;20215;53.130;6.408;2022-12-18T13:36:27;8.50;58.20
33931;DHT22;20215;53.130;6.408;2022-12-18T13:41:51;8.40;58.00
33931;DHT22;20215;53.130;6.408;2022-12-18T13:44:36;8.40;58.60
33931;DHT22;20215;53.130;6.408;2022-12-18T13:47:03;8.50;57.90
33931;DHT22;20215;53.130;6.408;2022-12-18T13:49:37;8.50;58.10
33931;DHT22;20215;53.130;6.408;2022-12-18T13:52:17;8.50;57.40
33931;DHT22;20215;53.130;6.408;2022-12-18T13:54:47;8.50;58.70
33931;DHT22;20215;53.130;6.408;2022-12-18T13:59:58;8.60;59.10
33931;DHT22;20215;53.130;6.408;2022-12-18T14:02:26;8.60;59.90
33931;DHT22;20215;53.130;6.408;2022-12-18T14:04:52;8.70;59.80
33931;DHT22;20215;53.130;6.408;2022-12-18T14:07:23;8.70;60.00
33931;DHT22;20215;53.130;6.408;2022-12-18T14:09:51;8.80;60.00
33931;DHT22;20215;53.130;6.408;2022-12-18T14:12:21;8.80;59.10
33931;DHT22;20215;53.130;6.408;2022-12-18T14:20:32;8.90;60.30
33931;DHT22;20215;53.130;6.408;2022-12-18T14:22:59;9.00;60.20
33931;DHT22;20215;53.130;6.408;2022-12-18T14:25:29;9.10;60.20
33931;DHT22;20215;53.130;6.408;2022-12-18T14:30:37;9.30;59.80
33931;DHT22;20215;53.130;6.408;2022-12-18T14:33:17;9.30;60.80
33931;DHT22;20215;53.130;6.408;2022-12-18T14:38:38;9.50;61.10
33931;DHT22;20215;53.130;6.408;2022-12-18T14:41:12;9.50;60.80
33931;DHT22;20215;53.130;6.408;2022-12-18T14:43:39;9.60;61.10
33931;DHT22;20215;53.130;6.408;2022-12-18T14:48:51;9.70;60.90
33931;DHT22;20215;53.130;6.408;2022-12-18T14:51:27;9.70;60.50
33931;DHT22;20215;53.130;6.408;2022-12-18T14:54:00;9.80;60.10
33931;DHT22;20215;53.130;6.408;2022-12-18T14:56:35;9.70;59.80
33931;DHT22;20215;53.130;6.408;2022-12-18T14:59:06;9.70;60.30
33931;DHT22;20215;53.130;6.408;2022-12-18T15:04:32;9.80;60.30
33931;DHT22;20215;53.130;6.408;2022-12-18T15:07:20;9.70;60.00
33931;DHT22;20215;53.130;6.408;2022-12-18T15:10:16;9.80;59.30
33931;DHT22;20215;53.130;6.408;2022-12-18T15:12:46;9.80;59.90
33931;DHT22;20215;53.130;6.408;2022-12-18T15:21:09;9.70;59.40
33931;DHT22;20215;53.130;6.408;2022-12-18T15:26:16;9.80;60.00
33931;DHT22;20215;53.130;6.408;2022-12-18T15:33:42;9.80;59.80
33931;DHT22;20215;53.130;6.408;2022-12-18T15:36:13;9.80;59.30
33931;DHT22;20215;53.130;6.408;2022-12-18T15:38:39;9.90;60.30
33931;DHT22;20215;53.130;6.408;2022-12-18T15:41:08;9.90;59.80
33931;DHT22;20215;53.130;6.408;2022-12-18T15:43:37;9.90;59.90
33931;DHT22;20215;53.130;6.408;2022-12-18T15:46:05;10.00;60.10
33931;DHT22;20215;53.130;6.408;2022-12-18T15:48:39;10.00;59.70
33931;DHT22;20215;53.130;6.408;2022-12-18T15:51:11;10.00;60.10
33931;DHT22;20215;53.130;6.408;2022-12-18T15:53:38;10.10;60.00
33931;DHT22;20215;53.130;6.408;2022-12-18T15:56:07;10.00;59.70
33931;DHT22;20215;53.130;6.408;2022-12-18T15:58:53;10.00;59.60
33931;DHT22;20215;53.130;6.408;2022-12-18T16:01:20;10.00;60.00
33931;DHT22;20215;53.130;6.408;2022-12-18T16:03:47;10.00;60.10
33931;DHT22;20215;53.130;6.408;2022-12-18T16:06:13;10.00;59.90
33931;DHT22;20215;53.130;6.408;2022-12-18T16:08:39;10.00;60.00
33931;DHT22;20215;53.130;6.408;2022-12-18T16:11:05;10.10;60.00
33931;DHT22;20215;53.130;6.408;2022-12-18T16:13:33;10.10;59.50
33931;DHT22;20215;53.130;6.408;2022-12-18T16:15:59;10.10;59.60
33931;DHT22;20215;53.130;6.408;2022-12-18T16:18:25;10.10;59.30
33931;DHT22;20215;53.130;6.408;2022-12-18T16:20:50;10.10;60.00
33931;DHT22;20215;53.130;6.408;2022-12-18T16:23:16;10.10;59.60
33931;DHT22;20215;53.130;6.408;2022-12-18T16:25:41;10.10;59.60
33931;DHT22;20215;53.130;6.408;2022-12-18T16:28:07;10.10;59.70
33931;DHT22;20215;53.130;6.408;2022-12-18T16:30:33;10.20;59.60
33931;DHT22;20215;53.130;6.408;2022-12-18T16:32:58;10.10;59.40
33931;DHT22;20215;53.130;6.408;2022-12-18T16:35:25;10.10;58.90
33931;DHT22;20215;53.130;6.408;2022-12-18T16:37:51;10.10;59.30
33931;DHT22;20215;53.130;6.408;2022-12-18T16:40:18;10.10;58.90
33931;DHT22;20215;53.130;6.408;2022-12-18T16:42:45;10.10;59.40
33931;DHT22;20215;53.130;6.408;2022-12-18T16:45:14;10.10;59.10
33931;DHT22;20215;53.130;6.408;2022-12-18T16:47:40;10.10;59.10
33931;DHT22;20215;53.130;6.408;2022-12-18T16:50:06;10.10;58.70
33931;DHT22;20215;53.130;6.408;2022-12-18T16:52:33;10.10;59.30
33931;DHT22;20215;53.130;6.408;2022-12-18T16:54:59;10.00;59.30
33931;DHT22;20215;53.130;6.408;2022-12-18T16:57:24;10.10;58.90
33931;DHT22;20215;53.130;6.408;2022-12-18T16:59:50;10.00;59.00
33931;DHT22;20215;53.130;6.408;2022-12-18T17:02:18;10.00;59.10
33931;DHT22;20215;53.130;6.408;2022-12-18T17:04:45;10.10;59.20
33931;DHT22;20215;53.130;6.408;2022-12-18T17:07:11;10.10;59.40
33931;DHT22;20215;53.130;6.408;2022-12-18T17:09:37;10.10;58.70
33931;DHT22;20215;53.130;6.408;2022-12-18T17:12:03;10.10;59.40
33931;DHT22;20215;53.130;6.408;2022-12-18T17:14:30;10.10;59.40
33931;DHT22;20215;53.130;6.408;2022-12-18T17:16:56;10.10;59.40
33931;DHT22;20215;53.130;6.408;2022-12-18T17:19:23;10.20;59.20
33931;DHT22;20215;53.130;6.408;2022-12-18T17:21:50;10.20;59.70
33931;DHT22;20215;53.130;6.408;2022-12-18T17:24:16;10.10;58.50
33931;DHT22;20215;53.130;6.408;2022-12-18T17:26:42;10.10;58.90
33931;DHT22;20215;53.130;6.408;2022-12-18T17:29:13;10.10;59.40
33931;DHT22;20215;53.130;6.408;2022-12-18T17:31:40;10.10;58.30
33931;DHT22;20215;53.130;6.408;2022-12-18T17:34:06;10.10;59.00
33931;DHT22;20215;53.130;6.408;2022-12-18T17:36:32;10.20;58.70
33931;DHT22;20215;53.130;6.408;2022-12-18T17:39:00;10.10;59.20
33931;DHT22;20215;53.130;6.408;2022-12-18T17:41:27;10.20;58.60
33931;DHT22;20215;53.130;6.408;2022-12-18T17:43:54;10.20;58.90
33931;DHT22;20215;53.130;6.408;2022-12-18T17:46:20;10.10;58.30
33931;DHT22;20215;53.130;6.408;2022-12-18T17:48:46;10.20;58.90